Etusivu
METAR-TAF:

METAR-TAF

Lentoasemat :

Perth, Australia

Leveyspiiri: 31-56S, Pituuspiiri: 115-57E, korkeus merenpinnasta: 20 m

Tämänhetkinen sää

Tämä raportti tehtiin 34 minuuttia sitten, kello 12.30 UTC
Tuuli 5 kn etelästä
Lämpötila 15°C
Kosteus 88%
Ilmanpaine 1029 hPa
Näkyvyys 10 km tai enemmän
ei pilviä alle 1500 m:ssä eikä cumulonimbus-pilviä

METAR: YPPH 221230Z 19005KT CAVOK 15/13 Q1029 NOSIG

Aika: 21:04 (13:04 UTC)

Sääennuste

Tämä raportti tehtiin 1 tunti ja 53 minuuttia sitten, kello 11.11 UTC
Ennuste voimassa 22. päivästä klo 12 UTC - 23. päivään klo 18 UTC
Tuuli 5 kn idästä
Näkyvyys 10 km tai enemmän
ei pilviä alle 1500 m:ssä eikä cumulonimbus-pilviä

TAF: YPPH 221111Z 2212/2318 08005KT CAVOK

Säähavainnot ja -ennusteet yli 4000 lentoasemalta (METAR- ja TAF-raportit).

Käytössä olevat sääasemat on merkitty karttaan keltaisilla ja punaisilla pisteillä.

Aseta hiiri pisteen päälle nähdäksesi sääaseman nimen.

Klikkaa sitten nähdäksesi säähavainnot ja -ennusteet.

Kartan vaihtaminen: klikkaa mustalla rastilla varustettuja vihreitä pisteitä, niin voit zoomata sisään; viivalla varustettua vihreää pistettä, niin voit zoomata ulos tai vihreitä nuolia, niin pääset viereisille kartoille.


METAR-TAF: